Latest Coastal Weather Observations for Barrow Island

IDW60701

Issued at 9:05 pm WST Wednesday 30 July 2014 (issued every 10 minutes, with the page automatically refreshed every 10 minutes)

About coastal observations | Map of coastal stations | Coastal observations for WA | Marine services | Other Formats
Station Details ID: 005094 Name: BARROW ISLAND AIRPORT Lat: -20.88 Lon: 115.41 Height: 6.4 m
Data from the previous 72 hours. | See also: Recent months at Barrow Island
Date/Time
WST
Temp

°C
Wind Pressure Rain
since 9am
mm
Weather Cloud Vis
km
Sea
Height
m
Swell
Dir
 
Speed
knots
Gust
knots
hPa Trend Height
m
Period
s
Dir
30/09:00pm 20.4 N 11 12 1017.5 - 0.0 - - - - - - -
30/08:30pm 20.9 N 11 12 1017.4 - 0.0 - - - - - - -
30/08:00pm 20.7 N 11 12 1017.3 - 0.0 - - - - - - -
30/07:30pm 21.0 N 11 12 1017.0 - 0.0 - - - - - - -
30/07:00pm 21.4 N 11 12 1016.8 - 0.0 - - - - - - -
30/06:30pm 21.9 NNE 12 13 1016.6 - 0.0 - - - - - - -
30/06:00pm 22.7 NNE 11 13 1016.6 - 0.0 - - - - - - -
30/05:30pm 23.8 NNE 12 13 1016.6 - 0.0 - - - - - - -
30/05:00pm 24.4 NNE 13 16 1016.7 - 0.0 - - - - - - -
30/04:30pm 25.1 NNE 14 17 1016.6 - 0.0 - - - - - - -
30/04:00pm 25.1 NNE 13 16 1016.6 - 0.0 - - - - - - -
30/03:30pm 24.9 NE 12 15 1016.6 - 0.0 - - - - - - -
30/03:00pm 24.8 NE 13 15 1016.7 - 0.0 - - - - - - -
30/02:30pm 24.7 NE 11 12 1016.9 - 0.0 - - - - - - -
30/02:00pm 25.1 NE 9 11 1017.1 - 0.0 - - - - - - -
30/01:30pm 24.7 ENE 8 8 1017.2 - 0.0 - - - - - - -
30/01:00pm 25.9 ENE 8 9 1017.6 - 0.0 - - - - - - -
30/12:30pm 24.2 ENE 8 8 1018.1 - 0.0 - - - - - - -
30/12:00pm 23.9 ENE 6 7 1018.5 - 0.0 - - - - - - -
30/11:30am 24.1 E 6 7 1018.8 - 0.0 - - - - - - -
30/11:00am 23.7 E 6 7 1019.2 - 0.0 - - - - - - -
30/10:30am 23.2 ENE 6 7 1019.4 - 0.0 - - - - - - -
30/10:00am 22.5 ESE 9 11 1019.3 - 0.0 - - - - - - -
30/09:30am 22.4 ESE 9 11 1019.2 - 0.0 - - - - - - -
30/09:00am 22.4 ESE 5 7 1019.0 - 0.0 - - - - - - -
30/08:30am 21.8 ESE 6 8 1018.7 - 0.0 - - - - - - -
30/08:00am 21.2 SE 8 10 1018.6 - 0.0 - - - - - - -
30/07:30am 20.2 SE 8 10 1018.5 - 0.0 - - - - - - -
30/07:00am 19.7 SE 10 12 1018.2 - 0.0 - - - - - - -
30/06:30am 19.4 SSE 6 7 1018.0 - 0.0 - - - - - - -
30/06:00am 19.7 SSE 8 9 1017.7 - 0.0 - - - - - - -
30/05:30am 19.6 SSE 5 7 1017.6 - 0.0 - - - - - - -
30/05:00am 19.8 S 7 8 1017.2 - 0.0 - - - - - - -
30/04:30am 19.3 SSW 5 6 1017.2 - 0.0 - - - - - - -
30/04:00am 20.5 S 7 9 1017.4 - 0.0 - - - - - - -
30/03:30am 20.5 S 6 7 1017.4 - 0.0 - - - - - - -
30/03:00am 20.7 S 7 8 1017.4 - 0.0 - - - - - - -
30/02:30am 20.6 SSW 8 9 1017.6 - 0.0 - - - - - - -
30/02:00am 20.3 SSW 4 5 1017.8 - 0.0 - - - - - - -
30/01:30am 20.3 SSW 5 6 1018.0 - 0.0 - - - - - - -
30/01:00am 21.0 SSW 8 9 1018.3 - 0.0 - - - - - - -
30/12:30am 21.2 S 10 12 1018.4 - 0.0 - - - - - - -
30/12:00am 21.4 S 10 13 1018.5 - 0.0 - - - - - - -
 
Date/Time
WST
Temp

°C
Wind Pressure Rain
since 9am
mm
Weather Cloud Vis
km
Sea
Height
m
Swell
Dir
 
Speed
knots
Gust
knots
hPa Trend Height
m
Period
s
Dir
29/11:30pm 20.5 SSW 8 9 1018.4 - 0.0 - - - - - - -
29/11:00pm 18.5 SSW 5 6 1018.6 - 0.0 - - - - - - -
29/10:30pm 20.3 SSW 6 6 1018.7 - 0.0 - - - - - - -
29/10:00pm 19.8 SSW 5 6 1018.7 - 0.0 - - - - - - -
29/09:30pm 18.9 W 4 6 1019.0 - 0.0 - - - - - - -
29/09:00pm 19.7 WSW 5 6 1018.8 - 0.0 - - - - - - -
29/08:30pm 19.3 WSW 6 6 1018.6 - 0.0 - - - - - - -
29/08:00pm 20.1 W 6 7 1018.1 - 0.0 - - - - - - -
29/07:30pm 20.4 W 6 6 1018.1 - 0.0 - - - - - - -
29/07:00pm 20.4 N 4 7 1018.1 - 0.0 - - - - - - -
29/06:30pm 21.5 CALM 0 0 1017.8 - 0.0 - - - - - - -
29/06:00pm 22.6 NE 5 6 1017.6 - 0.0 - - - - - - -
29/05:30pm 24.3 NE 8 9 1017.6 - 0.0 - - - - - - -
29/05:00pm 24.3 NE 8 11 1017.5 - 0.0 - - - - - - -
29/04:30pm 24.5 NE 8 11 1017.4 - 0.0 - - - - - - -
29/04:00pm 24.4 ENE 9 12 1017.3 - 0.0 - - - - - - -
29/03:30pm 24.6 NE 10 13 1017.4 - 0.0 - - - - - - -
29/03:00pm 24.9 ENE 9 13 1017.5 - 0.0 - - - - - - -
29/02:30pm 26.7 NE 11 14 1017.5 - 0.0 - - - - - - -
29/02:00pm 25.7 NE 10 13 1017.7 - 0.0 - - - - - - -
29/01:30pm 25.1 NE 9 11 1018.1 - 0.0 - - - - - - -
29/01:00pm 24.4 NE 8 13 1018.3 - 0.0 - - - - - - -
29/12:30pm 23.1 SE 4 5 1018.4 - 0.0 - - - - - - -
29/12:00pm 23.3 SSE 5 6 1018.4 - 0.0 - - - - - - -
29/11:30am 23.3 SSE 6 7 1018.6 - 0.0 - - - - - - -
29/11:00am 22.9 SE 5 7 1019.2 - 0.0 - - - - - - -
29/10:30am 22.7 ESE 8 9 1019.6 - 0.0 - - - - - - -
29/10:00am 22.5 ESE 11 13 1019.5 - 0.0 - - - - - - -
29/09:30am 22.2 SE 8 10 1019.6 - 0.0 - - - - - - -
29/09:00am 22.2 SE 9 11 1019.2 - 0.0 - - - - - - -
29/08:30am 21.7 SSE 8 11 1018.9 - 0.0 - - - - - - -
29/08:00am 20.8 S 5 7 1018.7 - 0.0 - - - - - - -
29/07:30am 19.7 S 8 9 1018.4 - 0.0 - - - - - - -
29/07:00am 19.1 S 6 8 1018.1 - 0.0 - - - - - - -
29/06:30am 19.2 S 8 10 1017.8 - 0.0 - - - - - - -
29/06:00am 19.6 S 11 12 1017.6 - 0.0 - - - - - - -
29/05:30am 19.6 S 12 14 1017.4 - 0.0 - - - - - - -
29/05:00am 19.8 S 10 12 1017.3 - 0.0 - - - - - - -
29/04:30am 19.9 S 10 11 1017.4 - 0.0 - - - - - - -
29/04:00am 20.1 S 10 11 1017.5 - 0.0 - - - - - - -
29/03:30am 20.3 S 9 10 1017.7 - 0.0 - - - - - - -
29/03:00am 20.6 S 10 11 1017.8 - 0.0 - - - - - - -
29/02:30am 20.8 S 12 13 1018.0 - 0.0 - - - - - - -
29/02:00am 20.5 SSW 9 11 1018.4 - 0.0 - - - - - - -
29/01:30am 20.7 SSW 9 10 1018.6 - 0.0 - - - - - - -
29/01:00am 21.2 S 11 13 1018.8 - 0.0 - - - - - - -
29/12:30am 21.1 S 11 12 1018.9 - 0.0 - - - - - - -
29/12:00am 20.9 S 10 10 1018.9 - 0.0 - - - - - - -
 
Date/Time
WST
Temp

°C
Wind Pressure Rain
since 9am
mm
Weather Cloud Vis
km
Sea
Height
m
Swell
Dir
 
Speed
knots
Gust
knots
hPa Trend Height
m
Period
s
Dir
28/11:30pm 19.2 WSW 4 7 1019.2 - 0.0 - - - - - - -
28/11:00pm 21.0 SSW 9 13 1019.1 - 0.0 - - - - - - -
28/10:30pm 19.0 WSW 6 7 1019.2 - 0.0 - - - - - - -
28/10:00pm 20.5 SSW 8 9 1019.1 - 0.0 - - - - - - -
28/09:30pm 19.1 SW 7 8 1019.0 - 0.0 - - - - - - -
28/09:00pm 17.9 SW 6 7 1018.8 - 0.0 - - - - - - -
28/08:30pm 19.1 SW 6 6 1018.6 - 0.0 - - - - - - -
28/08:00pm 20.0 SW 8 10 1018.4 - 0.0 - - - - - - -
28/07:30pm 20.3 SW 9 10 1018.1 - 0.0 - - - - - - -
28/07:00pm 20.6 SW 10 11 1017.9 - 0.0 - - - - - - -
28/06:30pm 20.8 WSW 7 9 1017.6 - 0.0 - - - - - - -
28/06:00pm 21.8 WSW 9 11 1017.4 - 0.0 - - - - - - -
28/05:30pm 22.4 SW 9 10 1017.4 - 0.0 - - - - - - -
28/05:00pm 22.9 SSW 9 10 1017.3 - 0.0 - - - - - - -
28/04:30pm 23.3 SSW 8 9 1017.1 - 0.0 - - - - - - -
28/04:00pm 23.5 SSW 8 9 1017.0 - 0.0 - - - - - - -
28/03:30pm 23.5 SSW 8 9 1017.1 - 0.0 - - - - - - -
28/03:00pm 23.6 SSW 7 9 1017.2 - 0.0 - - - - - - -
28/02:30pm 23.8 S 8 8 1017.3 - 0.0 - - - - - - -
28/02:00pm 23.8 S 6 7 1017.8 - 0.0 - - - - - - -
28/01:30pm 23.2 S 6 7 1018.3 - 0.0 - - - - - - -
28/01:00pm 23.7 S 7 8 1018.6 - 0.0 - - - - - - -
28/12:30pm 23.3 S 8 9 1019.0 - 0.0 - - - - - - -
28/12:00pm 22.7 S 9 10 1019.3 - 0.0 - - - - - - -
28/11:30am 22.6 S 8 10 1019.9 - 0.0 - - - - - - -
28/11:00am 22.6 S 7 9 1020.6 - 0.0 - - - - - - -
28/10:30am 22.5 SSE 6 7 1020.8 - 0.0 - - - - - - -
28/10:00am 22.2 SSE 8 9 1020.9 - 0.0 - - - - - - -
28/09:30am 22.3 SSE 7 8 1020.9 - 0.0 - - - - - - -
28/09:00am 21.8 S 5 7 1020.9 - 0.0 - - - - - - -
28/08:30am 20.6 S 7 9 1020.5 - 0.0 - - - - - - -
28/08:00am 19.7 SSE 10 13 1020.4 - 0.0 - - - - - - -
28/07:30am 19.0 SSE 10 11 1020.1 - 0.0 - - - - - - -
28/07:00am 19.3 SSE 8 10 1019.9 - 0.0 - - - - - - -
28/06:30am 18.3 S 7 10 1019.7 - 0.0 - - - - - - -
28/06:00am 16.0 SSW 5 7 1019.4 - 0.0 - - - - - - -
28/05:30am 16.2 SSW 6 7 1019.3 - 0.0 - - - - - - -
28/05:00am 16.0 WSW 6 8 1019.2 - 0.0 - - - - - - -
28/04:30am 14.4 WSW 6 7 1019.0 - 0.0 - - - - - - -
28/04:00am 15.8 SW 7 8 1018.8 - 0.0 - - - - - - -
28/03:30am 15.6 WSW 8 9 1019.0 - 0.0 - - - - - - -
28/03:00am 16.4 WSW 7 7 1019.0 - 0.0 - - - - - - -
28/02:30am 15.7 NW 6 7 1019.1 - 0.0 - - - - - - -
28/02:00am 16.6 NW 3 3 1019.1 - 0.0 - - - - - - -
28/01:30am 14.7 NNW 11 12 1019.5 - 0.0 - - - - - - -
28/01:00am 16.5 CALM 0 0 1019.5 - 0.0 - - - - - - -
28/12:30am 16.7 CALM 0 0 1019.7 - 0.0 - - - - - - -
28/12:00am 15.5 SW 3 4 1020.1 - 0.0 - - - - - - -
 
Date/Time
WST
Temp

°C
Wind Pressure Rain
since 9am
mm
Weather Cloud Vis
km
Sea
Height
m
Swell
Dir
 
Speed
knots
Gust
knots
hPa Trend Height
m
Period
s
Dir
27/11:30pm 17.3 CALM 0 0 1020.1 - 0.0 - - - - - - -
27/11:00pm 16.1 WSW 1 3 1020.4 - 0.0 - - - - - - -
27/10:30pm 16.0 SW 3 4 1020.4 - 0.0 - - - - - - -
27/10:00pm 17.4 SSW 4 6 1020.3 - 0.0 - - - - - - -
27/09:30pm 16.3 SSE 2 5 1020.3 - 0.0 - - - - - - -

Other Formats:

Comma delimited format used in spreadsheet applications
http://www.bom.gov.au/fwo/IDW60701/IDW60701.95304.axf

JavaScript Object Notation format (JSON) in row-major order
http://www.bom.gov.au/fwo/IDW60701/IDW60701.95304.json